sensor_id;sensor_type;location;lat;lon;timestamp;temperature;humidity
5647;DHT22;2845;48.626;9.362;2023-10-13T00:01:26;15.50;92.60
5647;DHT22;2845;48.626;9.362;2023-10-13T00:04:00;15.90;92.80
5647;DHT22;2845;48.626;9.362;2023-10-13T00:06:38;15.40;92.70
5647;DHT22;2845;48.626;9.362;2023-10-13T00:09:23;15.40;92.80
5647;DHT22;2845;48.626;9.362;2023-10-13T00:11:58;15.30;92.80
5647;DHT22;2845;48.626;9.362;2023-10-13T00:14:32;15.30;92.90
5647;DHT22;2845;48.626;9.362;2023-10-13T00:17:07;15.20;92.90
5647;DHT22;2845;48.626;9.362;2023-10-13T00:19:49;15.20;93.00
5647;DHT22;2845;48.626;9.362;2023-10-13T00:22:26;15.30;93.00
5647;DHT22;2845;48.626;9.362;2023-10-13T00:25:05;15.10;93.00
5647;DHT22;2845;48.626;9.362;2023-10-13T00:27:46;15.10;92.90
5647;DHT22;2845;48.626;9.362;2023-10-13T00:30:26;16.00;93.20
5647;DHT22;2845;48.626;9.362;2023-10-13T00:33:13;15.10;93.10
5647;DHT22;2845;48.626;9.362;2023-10-13T00:35:53;15.00;93.00
5647;DHT22;2845;48.626;9.362;2023-10-13T00:38:31;14.90;93.00
5647;DHT22;2845;48.626;9.362;2023-10-13T00:41:07;14.90;93.20
5647;DHT22;2845;48.626;9.362;2023-10-13T00:43:48;14.80;93.20
5647;DHT22;2845;48.626;9.362;2023-10-13T00:46:38;15.40;93.50
5647;DHT22;2845;48.626;9.362;2023-10-13T00:49:17;14.70;93.30
5647;DHT22;2845;48.626;9.362;2023-10-13T00:51:52;14.60;93.40
5647;DHT22;2845;48.626;9.362;2023-10-13T00:54:29;14.50;93.40
5647;DHT22;2845;48.626;9.362;2023-10-13T00:57:05;14.40;93.40
5647;DHT22;2845;48.626;9.362;2023-10-13T00:59:46;14.80;93.50
5647;DHT22;2845;48.626;9.362;2023-10-13T01:02:26;14.90;93.60
5647;DHT22;2845;48.626;9.362;2023-10-13T01:05:10;14.20;93.70
5647;DHT22;2845;48.626;9.362;2023-10-13T01:07:52;14.10;93.50
5647;DHT22;2845;48.626;9.362;2023-10-13T01:10:27;14.10;93.50
5647;DHT22;2845;48.626;9.362;2023-10-13T01:13:07;14.00;93.50
5647;DHT22;2845;48.626;9.362;2023-10-13T01:15:40;14.00;93.50
5647;DHT22;2845;48.626;9.362;2023-10-13T01:18:14;13.90;93.50
5647;DHT22;2845;48.626;9.362;2023-10-13T01:20:49;13.80;93.70
5647;DHT22;2845;48.626;9.362;2023-10-13T01:23:27;13.80;93.50
5647;DHT22;2845;48.626;9.362;2023-10-13T01:26:01;13.70;93.40
5647;DHT22;2845;48.626;9.362;2023-10-13T01:28:38;13.60;93.40
5647;DHT22;2845;48.626;9.362;2023-10-13T01:31:28;13.60;93.40
5647;DHT22;2845;48.626;9.362;2023-10-13T01:34:04;13.50;93.30
5647;DHT22;2845;48.626;9.362;2023-10-13T01:36:39;13.40;93.40
5647;DHT22;2845;48.626;9.362;2023-10-13T01:39:14;13.40;93.40
5647;DHT22;2845;48.626;9.362;2023-10-13T01:41:55;13.30;93.30
5647;DHT22;2845;48.626;9.362;2023-10-13T01:44:29;13.30;93.30
5647;DHT22;2845;48.626;9.362;2023-10-13T01:47:03;13.30;93.40
5647;DHT22;2845;48.626;9.362;2023-10-13T01:49:39;13.20;93.40
5647;DHT22;2845;48.626;9.362;2023-10-13T01:52:16;13.20;93.40
5647;DHT22;2845;48.626;9.362;2023-10-13T01:54:57;13.10;93.50
5647;DHT22;2845;48.626;9.362;2023-10-13T01:57:33;13.20;93.50
5647;DHT22;2845;48.626;9.362;2023-10-13T02:00:10;13.10;93.50
5647;DHT22;2845;48.626;9.362;2023-10-13T02:02:52;12.90;93.50
5647;DHT22;2845;48.626;9.362;2023-10-13T02:05:26;12.90;93.50
5647;DHT22;2845;48.626;9.362;2023-10-13T02:08:06;12.80;93.60
5647;DHT22;2845;48.626;9.362;2023-10-13T02:10:45;12.80;93.60
5647;DHT22;2845;48.626;9.362;2023-10-13T02:13:23;12.80;93.70
5647;DHT22;2845;48.626;9.362;2023-10-13T02:15:58;12.80;93.70
5647;DHT22;2845;48.626;9.362;2023-10-13T02:18:36;12.70;93.70
5647;DHT22;2845;48.626;9.362;2023-10-13T02:21:16;12.70;93.80
5647;DHT22;2845;48.626;9.362;2023-10-13T02:23:50;12.70;93.80
5647;DHT22;2845;48.626;9.362;2023-10-13T02:26:34;12.60;93.80
5647;DHT22;2845;48.626;9.362;2023-10-13T02:29:12;12.60;93.80
5647;DHT22;2845;48.626;9.362;2023-10-13T02:31:47;12.50;93.90
5647;DHT22;2845;48.626;9.362;2023-10-13T02:34:39;12.50;93.90
5647;DHT22;2845;48.626;9.362;2023-10-13T02:37:16;12.40;93.90
5647;DHT22;2845;48.626;9.362;2023-10-13T02:39:57;12.50;94.00
5647;DHT22;2845;48.626;9.362;2023-10-13T02:42:32;12.40;94.10
5647;DHT22;2845;48.626;9.362;2023-10-13T02:45:07;12.40;94.10
5647;DHT22;2845;48.626;9.362;2023-10-13T02:47:44;12.30;94.10
5647;DHT22;2845;48.626;9.362;2023-10-13T02:50:40;12.30;94.10
5647;DHT22;2845;48.626;9.362;2023-10-13T02:53:16;12.20;94.10
5647;DHT22;2845;48.626;9.362;2023-10-13T02:55:52;12.20;94.20
5647;DHT22;2845;48.626;9.362;2023-10-13T02:58:30;12.10;94.40
5647;DHT22;2845;48.626;9.362;2023-10-13T03:01:11;12.10;94.40
5647;DHT22;2845;48.626;9.362;2023-10-13T03:03:53;12.00;94.30
5647;DHT22;2845;48.626;9.362;2023-10-13T03:06:41;12.00;94.30
5647;DHT22;2845;48.626;9.362;2023-10-13T03:09:17;12.00;94.40
5647;DHT22;2845;48.626;9.362;2023-10-13T03:11:52;12.00;94.50
5647;DHT22;2845;48.626;9.362;2023-10-13T03:14:27;11.90;94.50
5647;DHT22;2845;48.626;9.362;2023-10-13T03:17:05;11.90;94.50
5647;DHT22;2845;48.626;9.362;2023-10-13T03:19:42;11.90;94.50
5647;DHT22;2845;48.626;9.362;2023-10-13T03:22:19;11.90;94.60
5647;DHT22;2845;48.626;9.362;2023-10-13T03:25:08;11.80;94.60
5647;DHT22;2845;48.626;9.362;2023-10-13T03:27:46;11.80;94.70
5647;DHT22;2845;48.626;9.362;2023-10-13T03:30:37;11.80;94.60
5647;DHT22;2845;48.626;9.362;2023-10-13T03:33:14;11.80;94.60
5647;DHT22;2845;48.626;9.362;2023-10-13T03:35:58;11.80;94.70
5647;DHT22;2845;48.626;9.362;2023-10-13T03:38:38;11.80;94.80
5647;DHT22;2845;48.626;9.362;2023-10-13T03:41:13;11.80;94.80
5647;DHT22;2845;48.626;9.362;2023-10-13T03:43:53;11.80;94.80
5647;DHT22;2845;48.626;9.362;2023-10-13T03:46:41;11.70;94.80
5647;DHT22;2845;48.626;9.362;2023-10-13T03:49:15;11.70;94.90
5647;DHT22;2845;48.626;9.362;2023-10-13T03:52:03;11.70;94.90
5647;DHT22;2845;48.626;9.362;2023-10-13T03:54:38;11.70;94.90
5647;DHT22;2845;48.626;9.362;2023-10-13T03:57:13;12.10;95.00
5647;DHT22;2845;48.626;9.362;2023-10-13T03:59:49;11.60;95.00
5647;DHT22;2845;48.626;9.362;2023-10-13T04:02:27;11.60;95.10
5647;DHT22;2845;48.626;9.362;2023-10-13T04:05:01;11.50;95.10
5647;DHT22;2845;48.626;9.362;2023-10-13T04:07:41;11.50;95.20
5647;DHT22;2845;48.626;9.362;2023-10-13T04:10:35;11.40;95.10
5647;DHT22;2845;48.626;9.362;2023-10-13T04:13:31;11.40;95.20
5647;DHT22;2845;48.626;9.362;2023-10-13T04:16:49;11.40;95.30
5647;DHT22;2845;48.626;9.362;2023-10-13T04:19:36;11.40;95.30
5647;DHT22;2845;48.626;9.362;2023-10-13T04:22:31;11.40;95.30
5647;DHT22;2845;48.626;9.362;2023-10-13T04:25:31;11.30;95.40
5647;DHT22;2845;48.626;9.362;2023-10-13T04:28:24;11.30;95.40
5647;DHT22;2845;48.626;9.362;2023-10-13T04:31:15;11.30;95.50
5647;DHT22;2845;48.626;9.362;2023-10-13T04:34:25;11.30;95.60
5647;DHT22;2845;48.626;9.362;2023-10-13T04:37:09;11.70;95.70
5647;DHT22;2845;48.626;9.362;2023-10-13T04:40:02;11.80;95.80
5647;DHT22;2845;48.626;9.362;2023-10-13T04:42:42;11.10;95.70
5647;DHT22;2845;48.626;9.362;2023-10-13T04:45:27;11.10;95.70
5647;DHT22;2845;48.626;9.362;2023-10-13T04:48:11;11.00;95.90
5647;DHT22;2845;48.626;9.362;2023-10-13T04:51:01;11.10;96.00
5647;DHT22;2845;48.626;9.362;2023-10-13T04:53:55;11.00;96.00
5647;DHT22;2845;48.626;9.362;2023-10-13T04:56:43;11.00;96.20
5647;DHT22;2845;48.626;9.362;2023-10-13T04:59:32;11.00;96.20
5647;DHT22;2845;48.626;9.362;2023-10-13T05:02:37;11.00;96.10
5647;DHT22;2845;48.626;9.362;2023-10-13T05:05:35;11.00;96.20
5647;DHT22;2845;48.626;9.362;2023-10-13T05:08:28;10.90;96.20
5647;DHT22;2845;48.626;9.362;2023-10-13T05:11:21;10.90;96.20
5647;DHT22;2845;48.626;9.362;2023-10-13T05:14:15;11.40;96.30
5647;DHT22;2845;48.626;9.362;2023-10-13T05:17:31;10.80;96.20
5647;DHT22;2845;48.626;9.362;2023-10-13T05:20:23;10.80;96.30
5647;DHT22;2845;48.626;9.362;2023-10-13T05:23:16;11.10;96.30
5647;DHT22;2845;48.626;9.362;2023-10-13T05:26:08;10.70;96.30
5647;DHT22;2845;48.626;9.362;2023-10-13T05:29:01;10.70;96.40
5647;DHT22;2845;48.626;9.362;2023-10-13T05:32:00;10.80;96.50
5647;DHT22;2845;48.626;9.362;2023-10-13T05:34:52;10.70;96.50
5647;DHT22;2845;48.626;9.362;2023-10-13T05:37:44;10.70;96.50
5647;DHT22;2845;48.626;9.362;2023-10-13T05:40:36;10.70;96.60
5647;DHT22;2845;48.626;9.362;2023-10-13T05:43:29;10.70;96.60
5647;DHT22;2845;48.626;9.362;2023-10-13T05:46:22;10.60;96.60
5647;DHT22;2845;48.626;9.362;2023-10-13T05:49:34;10.60;96.60
5647;DHT22;2845;48.626;9.362;2023-10-13T05:52:22;10.60;96.70
5647;DHT22;2845;48.626;9.362;2023-10-13T05:55:10;10.60;96.80
5647;DHT22;2845;48.626;9.362;2023-10-13T05:58:03;10.70;96.80
5647;DHT22;2845;48.626;9.362;2023-10-13T06:00:55;10.90;96.80
5647;DHT22;2845;48.626;9.362;2023-10-13T06:03:49;10.70;96.80
5647;DHT22;2845;48.626;9.362;2023-10-13T06:06:41;12.60;97.30
5647;DHT22;2845;48.626;9.362;2023-10-13T06:09:33;10.80;96.90
5647;DHT22;2845;48.626;9.362;2023-10-13T06:12:36;10.80;96.70
5647;DHT22;2845;48.626;9.362;2023-10-13T06:15:29;11.00;96.80
5647;DHT22;2845;48.626;9.362;2023-10-13T06:18:27;9.50;96.40
5647;DHT22;2845;48.626;9.362;2023-10-13T06:24:13;11.00;96.60
5647;DHT22;2845;48.626;9.362;2023-10-13T06:27:05;11.00;96.60
5647;DHT22;2845;48.626;9.362;2023-10-13T06:29:57;12.20;96.80
5647;DHT22;2845;48.626;9.362;2023-10-13T06:32:34;11.30;96.50
5647;DHT22;2845;48.626;9.362;2023-10-13T06:35:13;11.40;96.40
5647;DHT22;2845;48.626;9.362;2023-10-13T06:37:57;11.50;96.40
5647;DHT22;2845;48.626;9.362;2023-10-13T06:40:33;11.60;96.30
5647;DHT22;2845;48.626;9.362;2023-10-13T06:43:09;11.70;96.20
5647;DHT22;2845;48.626;9.362;2023-10-13T06:45:50;11.80;96.10
5647;DHT22;2845;48.626;9.362;2023-10-13T06:48:33;11.90;96.00
5647;DHT22;2845;48.626;9.362;2023-10-13T06:51:09;12.00;96.10
5647;DHT22;2845;48.626;9.362;2023-10-13T06:53:52;12.10;95.90
5647;DHT22;2845;48.626;9.362;2023-10-13T06:56:29;12.30;95.90
5647;DHT22;2845;48.626;9.362;2023-10-13T06:59:03;12.20;95.80
5647;DHT22;2845;48.626;9.362;2023-10-13T07:01:39;12.20;95.90
5647;DHT22;2845;48.626;9.362;2023-10-13T07:04:17;13.20;96.30
5647;DHT22;2845;48.626;9.362;2023-10-13T07:06:55;12.30;96.10
5647;DHT22;2845;48.626;9.362;2023-10-13T07:09:31;12.30;96.10
5647;DHT22;2845;48.626;9.362;2023-10-13T07:12:13;12.30;96.00
5647;DHT22;2845;48.626;9.362;2023-10-13T07:14:54;13.10;96.20
5647;DHT22;2845;48.626;9.362;2023-10-13T07:17:44;12.40;96.00
5647;DHT22;2845;48.626;9.362;2023-10-13T07:20:19;12.50;95.90
5647;DHT22;2845;48.626;9.362;2023-10-13T07:22:57;12.60;95.90
5647;DHT22;2845;48.626;9.362;2023-10-13T07:25:38;12.60;95.80
5647;DHT22;2845;48.626;9.362;2023-10-13T07:28:15;14.10;96.30
5647;DHT22;2845;48.626;9.362;2023-10-13T07:30:49;12.70;95.70
5647;DHT22;2845;48.626;9.362;2023-10-13T07:33:44;12.80;95.80
5647;DHT22;2845;48.626;9.362;2023-10-13T07:36:18;12.90;95.80
5647;DHT22;2845;48.626;9.362;2023-10-13T07:39:01;13.90;95.90
5647;DHT22;2845;48.626;9.362;2023-10-13T07:41:57;13.10;95.60
5647;DHT22;2845;48.626;9.362;2023-10-13T07:44:37;13.50;95.60
5647;DHT22;2845;48.626;9.362;2023-10-13T07:47:19;13.30;95.40
5647;DHT22;2845;48.626;9.362;2023-10-13T07:49:53;13.50;95.20
5647;DHT22;2845;48.626;9.362;2023-10-13T07:52:29;13.60;95.20
5647;DHT22;2845;48.626;9.362;2023-10-13T07:55:13;13.70;95.10
5647;DHT22;2845;48.626;9.362;2023-10-13T07:57:51;14.00;94.90
5647;DHT22;2845;48.626;9.362;2023-10-13T08:00:29;14.20;94.60
5647;DHT22;2845;48.626;9.362;2023-10-13T08:03:19;15.50;94.70
5647;DHT22;2845;48.626;9.362;2023-10-13T08:06:08;14.70;93.90
5647;DHT22;2845;48.626;9.362;2023-10-13T08:08:54;14.90;93.80
5647;DHT22;2845;48.626;9.362;2023-10-13T08:11:38;15.10;93.60
5647;DHT22;2845;48.626;9.362;2023-10-13T08:14:14;15.30;93.50
5647;DHT22;2845;48.626;9.362;2023-10-13T08:17:11;15.40;93.30
5647;DHT22;2845;48.626;9.362;2023-10-13T08:19:47;15.60;92.90
5647;DHT22;2845;48.626;9.362;2023-10-13T08:22:22;15.70;92.80
5647;DHT22;2845;48.626;9.362;2023-10-13T08:25:08;15.80;92.40
5647;DHT22;2845;48.626;9.362;2023-10-13T08:27:58;17.00;92.30
5647;DHT22;2845;48.626;9.362;2023-10-13T08:30:51;16.10;92.10
5647;DHT22;2845;48.626;9.362;2023-10-13T08:33:29;16.10;91.80
5647;DHT22;2845;48.626;9.362;2023-10-13T08:36:07;16.30;91.80
5647;DHT22;2845;48.626;9.362;2023-10-13T08:39:02;16.30;91.70
5647;DHT22;2845;48.626;9.362;2023-10-13T08:41:57;16.50;91.40
5647;DHT22;2845;48.626;9.362;2023-10-13T08:44:45;16.60;90.90
5647;DHT22;2845;48.626;9.362;2023-10-13T08:47:26;16.70;90.90
5647;DHT22;2845;48.626;9.362;2023-10-13T08:50:09;16.80;90.50
5647;DHT22;2845;48.626;9.362;2023-10-13T08:53:04;16.80;90.40
5647;DHT22;2845;48.626;9.362;2023-10-13T08:56:00;16.80;90.50
5647;DHT22;2845;48.626;9.362;2023-10-13T08:58:38;17.00;90.60
5647;DHT22;2845;48.626;9.362;2023-10-13T09:01:38;17.20;90.60
5647;DHT22;2845;48.626;9.362;2023-10-13T09:04:20;17.40;90.10
5647;DHT22;2845;48.626;9.362;2023-10-13T09:06:56;17.40;90.20
5647;DHT22;2845;48.626;9.362;2023-10-13T09:09:48;17.60;90.00
5647;DHT22;2845;48.626;9.362;2023-10-13T09:12:35;17.80;89.60
5647;DHT22;2845;48.626;9.362;2023-10-13T09:15:11;18.00;89.10
5647;DHT22;2845;48.626;9.362;2023-10-13T09:17:52;18.00;89.00
5647;DHT22;2845;48.626;9.362;2023-10-13T09:20:46;18.10;88.10
5647;DHT22;2845;48.626;9.362;2023-10-13T09:23:34;18.30;88.30
5647;DHT22;2845;48.626;9.362;2023-10-13T09:26:22;18.50;88.00
5647;DHT22;2845;48.626;9.362;2023-10-13T09:28:57;19.60;88.00
5647;DHT22;2845;48.626;9.362;2023-10-13T09:31:31;18.60;86.70
5647;DHT22;2845;48.626;9.362;2023-10-13T09:34:05;18.50;87.20
5647;DHT22;2845;48.626;9.362;2023-10-13T09:36:44;18.40;87.00
5647;DHT22;2845;48.626;9.362;2023-10-13T09:39:21;18.40;87.10
5647;DHT22;2845;48.626;9.362;2023-10-13T09:42:07;18.50;87.30
5647;DHT22;2845;48.626;9.362;2023-10-13T09:44:43;18.70;87.20
5647;DHT22;2845;48.626;9.362;2023-10-13T09:47:23;18.80;87.00
5647;DHT22;2845;48.626;9.362;2023-10-13T09:50:04;19.00;87.40
5647;DHT22;2845;48.626;9.362;2023-10-13T09:52:50;19.20;86.80
5647;DHT22;2845;48.626;9.362;2023-10-13T09:55:28;19.40;86.10
5647;DHT22;2845;48.626;9.362;2023-10-13T09:58:07;19.40;85.50
5647;DHT22;2845;48.626;9.362;2023-10-13T10:00:46;19.40;85.70
5647;DHT22;2845;48.626;9.362;2023-10-13T10:03:23;19.60;85.70
5647;DHT22;2845;48.626;9.362;2023-10-13T10:06:21;19.70;85.20
5647;DHT22;2845;48.626;9.362;2023-10-13T10:09:06;20.00;84.40
5647;DHT22;2845;48.626;9.362;2023-10-13T10:12:13;20.20;84.30
5647;DHT22;2845;48.626;9.362;2023-10-13T10:15:06;20.30;83.90
5647;DHT22;2845;48.626;9.362;2023-10-13T10:17:43;20.40;83.80
5647;DHT22;2845;48.626;9.362;2023-10-13T10:20:28;20.60;83.30
5647;DHT22;2845;48.626;9.362;2023-10-13T10:23:24;20.60;82.80
5647;DHT22;2845;48.626;9.362;2023-10-13T10:26:09;20.70;83.10
5647;DHT22;2845;48.626;9.362;2023-10-13T10:28:47;20.90;82.70
5647;DHT22;2845;48.626;9.362;2023-10-13T10:31:31;21.00;82.40
5647;DHT22;2845;48.626;9.362;2023-10-13T10:34:13;21.10;82.00
5647;DHT22;2845;48.626;9.362;2023-10-13T10:36:54;21.40;81.30
5647;DHT22;2845;48.626;9.362;2023-10-13T10:39:33;21.70;80.60
5647;DHT22;2845;48.626;9.362;2023-10-13T10:42:19;22.10;79.30
5647;DHT22;2845;48.626;9.362;2023-10-13T10:45:02;22.40;78.10
5647;DHT22;2845;48.626;9.362;2023-10-13T10:47:48;22.70;77.20
5647;DHT22;2845;48.626;9.362;2023-10-13T10:50:31;22.90;76.20
5647;DHT22;2845;48.626;9.362;2023-10-13T10:53:09;23.20;75.50
5647;DHT22;2845;48.626;9.362;2023-10-13T10:55:43;23.40;74.40
5647;DHT22;2845;48.626;9.362;2023-10-13T10:58:19;23.50;74.20
5647;DHT22;2845;48.626;9.362;2023-10-13T11:01:05;23.60;74.50
5647;DHT22;2845;48.626;9.362;2023-10-13T11:03:53;23.70;74.00
5647;DHT22;2845;48.626;9.362;2023-10-13T11:06:30;23.80;73.90
5647;DHT22;2845;48.626;9.362;2023-10-13T11:09:12;23.80;73.40
5647;DHT22;2845;48.626;9.362;2023-10-13T11:11:54;23.80;73.00
5647;DHT22;2845;48.626;9.362;2023-10-13T11:14:32;26.60;74.90
5647;DHT22;2845;48.626;9.362;2023-10-13T11:17:07;23.90;72.90
5647;DHT22;2845;48.626;9.362;2023-10-13T11:19:54;25.30;74.20
5647;DHT22;2845;48.626;9.362;2023-10-13T11:22:28;24.10;71.10
5647;DHT22;2845;48.626;9.362;2023-10-13T11:25:06;24.40;71.80
5647;DHT22;2845;48.626;9.362;2023-10-13T11:27:43;24.50;70.90
5647;DHT22;2845;48.626;9.362;2023-10-13T11:30:29;26.60;70.30
5647;DHT22;2845;48.626;9.362;2023-10-13T11:33:14;24.60;68.90
5647;DHT22;2845;48.626;9.362;2023-10-13T11:35:51;24.60;68.90
5647;DHT22;2845;48.626;9.362;2023-10-13T11:38:35;24.70;68.50
5647;DHT22;2845;48.626;9.362;2023-10-13T11:41:26;25.70;69.40
5647;DHT22;2845;48.626;9.362;2023-10-13T11:44:06;24.70;67.60
5647;DHT22;2845;48.626;9.362;2023-10-13T11:46:57;25.40;67.20
5647;DHT22;2845;48.626;9.362;2023-10-13T11:50:05;25.00;65.20
5647;DHT22;2845;48.626;9.362;2023-10-13T11:52:39;25.10;64.70
5647;DHT22;2845;48.626;9.362;2023-10-13T11:55:15;25.30;65.10
5647;DHT22;2845;48.626;9.362;2023-10-13T11:57:50;25.40;65.70
5647;DHT22;2845;48.626;9.362;2023-10-13T12:00:25;25.30;65.50
5647;DHT22;2845;48.626;9.362;2023-10-13T12:03:21;25.20;65.30
5647;DHT22;2845;48.626;9.362;2023-10-13T12:06:15;25.10;65.50
5647;DHT22;2845;48.626;9.362;2023-10-13T12:08:55;25.00;66.40
5647;DHT22;2845;48.626;9.362;2023-10-13T12:11:44;25.10;65.30
5647;DHT22;2845;48.626;9.362;2023-10-13T12:14:20;25.10;66.10
5647;DHT22;2845;48.626;9.362;2023-10-13T12:17:00;25.00;65.60
5647;DHT22;2845;48.626;9.362;2023-10-13T12:19:39;26.30;66.30
5647;DHT22;2845;48.626;9.362;2023-10-13T12:22:13;25.10;65.20
5647;DHT22;2845;48.626;9.362;2023-10-13T12:24:58;26.40;66.20
5647;DHT22;2845;48.626;9.362;2023-10-13T12:27:37;25.20;66.00
5647;DHT22;2845;48.626;9.362;2023-10-13T12:30:18;25.20;65.80
5647;DHT22;2845;48.626;9.362;2023-10-13T12:33:08;25.10;66.10
5647;DHT22;2845;48.626;9.362;2023-10-13T12:35:44;25.10;65.30
5647;DHT22;2845;48.626;9.362;2023-10-13T12:38:37;25.10;66.10
5647;DHT22;2845;48.626;9.362;2023-10-13T12:41:49;25.00;66.50
5647;DHT22;2845;48.626;9.362;2023-10-13T12:44:41;25.00;66.70
5647;DHT22;2845;48.626;9.362;2023-10-13T12:47:33;25.30;66.40
5647;DHT22;2845;48.626;9.362;2023-10-13T12:50:21;25.10;65.60
5647;DHT22;2845;48.626;9.362;2023-10-13T12:53:09;25.60;65.00
5647;DHT22;2845;48.626;9.362;2023-10-13T12:55:46;27.70;66.40
5647;DHT22;2845;48.626;9.362;2023-10-13T12:58:25;25.50;64.80
5647;DHT22;2845;48.626;9.362;2023-10-13T13:01:00;25.50;64.10
5647;DHT22;2845;48.626;9.362;2023-10-13T13:03:39;25.50;63.80
5647;DHT22;2845;48.626;9.362;2023-10-13T13:06:18;25.50;64.50
5647;DHT22;2845;48.626;9.362;2023-10-13T13:08:59;26.40;66.10
5647;DHT22;2845;48.626;9.362;2023-10-13T13:11:34;25.50;64.40
5647;DHT22;2845;48.626;9.362;2023-10-13T13:14:12;25.50;64.10
5647;DHT22;2845;48.626;9.362;2023-10-13T13:16:47;25.60;64.50
5647;DHT22;2845;48.626;9.362;2023-10-13T13:19:22;25.80;63.80
5647;DHT22;2845;48.626;9.362;2023-10-13T13:21:59;25.70;65.20
5647;DHT22;2845;48.626;9.362;2023-10-13T13:24:35;25.80;64.60
5647;DHT22;2845;48.626;9.362;2023-10-13T13:27:17;25.70;65.90
5647;DHT22;2845;48.626;9.362;2023-10-13T13:29:52;25.60;65.30
5647;DHT22;2845;48.626;9.362;2023-10-13T13:32:29;25.70;64.40
5647;DHT22;2845;48.626;9.362;2023-10-13T13:35:04;25.80;64.40
5647;DHT22;2845;48.626;9.362;2023-10-13T13:37:40;25.80;63.70
5647;DHT22;2845;48.626;9.362;2023-10-13T13:40:20;25.90;63.80
5647;DHT22;2845;48.626;9.362;2023-10-13T13:42:55;26.00;64.10
5647;DHT22;2845;48.626;9.362;2023-10-13T13:45:30;25.90;63.90
5647;DHT22;2845;48.626;9.362;2023-10-13T13:48:07;26.10;63.30
5647;DHT22;2845;48.626;9.362;2023-10-13T13:50:49;26.00;64.50
5647;DHT22;2845;48.626;9.362;2023-10-13T13:53:28;26.00;63.30
5647;DHT22;2845;48.626;9.362;2023-10-13T13:56:07;26.10;64.60
5647;DHT22;2845;48.626;9.362;2023-10-13T13:58:41;26.60;64.90
5647;DHT22;2845;48.626;9.362;2023-10-13T14:01:16;26.10;63.90
5647;DHT22;2845;48.626;9.362;2023-10-13T14:03:53;26.00;64.10
5647;DHT22;2845;48.626;9.362;2023-10-13T14:06:30;25.90;64.10
5647;DHT22;2845;48.626;9.362;2023-10-13T14:09:05;25.90;63.30
5647;DHT22;2845;48.626;9.362;2023-10-13T14:11:49;25.90;62.40
5647;DHT22;2845;48.626;9.362;2023-10-13T14:14:40;26.00;62.40
5647;DHT22;2845;48.626;9.362;2023-10-13T14:17:21;26.00;62.80
5647;DHT22;2845;48.626;9.362;2023-10-13T14:20:02;26.00;62.80
5647;DHT22;2845;48.626;9.362;2023-10-13T14:22:48;26.00;62.80
5647;DHT22;2845;48.626;9.362;2023-10-13T14:25:25;25.90;64.00
5647;DHT22;2845;48.626;9.362;2023-10-13T14:28:04;24.50;61.30
5647;DHT22;2845;48.626;9.362;2023-10-13T14:30:39;26.20;61.10
5647;DHT22;2845;48.626;9.362;2023-10-13T14:33:13;26.50;61.30
5647;DHT22;2845;48.626;9.362;2023-10-13T14:35:48;26.50;61.90
5647;DHT22;2845;48.626;9.362;2023-10-13T14:38:22;26.50;61.30
5647;DHT22;2845;48.626;9.362;2023-10-13T14:40:56;27.80;62.80
5647;DHT22;2845;48.626;9.362;2023-10-13T14:43:36;26.50;62.60
5647;DHT22;2845;48.626;9.362;2023-10-13T14:46:11;26.50;61.10
5647;DHT22;2845;48.626;9.362;2023-10-13T14:48:48;26.50;60.30
5647;DHT22;2845;48.626;9.362;2023-10-13T14:51:25;26.40;61.40
5647;DHT22;2845;48.626;9.362;2023-10-13T14:54:01;26.30;62.00
5647;DHT22;2845;48.626;9.362;2023-10-13T14:56:37;26.20;61.70
5647;DHT22;2845;48.626;9.362;2023-10-13T14:59:19;26.00;61.50
5647;DHT22;2845;48.626;9.362;2023-10-13T15:01:58;25.90;61.20
5647;DHT22;2845;48.626;9.362;2023-10-13T15:04:37;25.80;61.30
5647;DHT22;2845;48.626;9.362;2023-10-13T15:07:11;28.00;63.20
5647;DHT22;2845;48.626;9.362;2023-10-13T15:09:48;25.50;61.00
5647;DHT22;2845;48.626;9.362;2023-10-13T15:12:22;25.50;60.00
5647;DHT22;2845;48.626;9.362;2023-10-13T15:15:04;25.50;62.30
5647;DHT22;2845;48.626;9.362;2023-10-13T15:17:46;25.40;62.90
5647;DHT22;2845;48.626;9.362;2023-10-13T15:20:29;25.20;62.40
5647;DHT22;2845;48.626;9.362;2023-10-13T15:23:04;25.10;62.90
5647;DHT22;2845;48.626;9.362;2023-10-13T15:25:39;27.40;65.90
5647;DHT22;2845;48.626;9.362;2023-10-13T15:28:25;26.40;63.00
5647;DHT22;2845;48.626;9.362;2023-10-13T15:31:15;27.80;63.50
5647;DHT22;2845;48.626;9.362;2023-10-13T15:33:59;25.80;63.50
5647;DHT22;2845;48.626;9.362;2023-10-13T15:36:43;24.50;63.10
5647;DHT22;2845;48.626;9.362;2023-10-13T15:42:25;24.20;62.70
5647;DHT22;2845;48.626;9.362;2023-10-13T15:45:33;22.30;63.10
5647;DHT22;2845;48.626;9.362;2023-10-13T15:48:14;24.10;63.30
5647;DHT22;2845;48.626;9.362;2023-10-13T15:50:52;24.00;64.10
5647;DHT22;2845;48.626;9.362;2023-10-13T15:53:27;23.90;65.00
5647;DHT22;2845;48.626;9.362;2023-10-13T15:56:03;26.30;66.00
5647;DHT22;2845;48.626;9.362;2023-10-13T15:58:44;23.70;65.70
5647;DHT22;2845;48.626;9.362;2023-10-13T16:01:18;23.60;65.00
5647;DHT22;2845;48.626;9.362;2023-10-13T16:03:58;25.50;66.80
5647;DHT22;2845;48.626;9.362;2023-10-13T16:06:44;26.20;68.00
5647;DHT22;2845;48.626;9.362;2023-10-13T16:09:23;23.40;67.10
5647;DHT22;2845;48.626;9.362;2023-10-13T16:11:58;25.80;68.70
5647;DHT22;2845;48.626;9.362;2023-10-13T16:14:32;23.10;68.00
5647;DHT22;2845;48.626;9.362;2023-10-13T16:17:08;25.50;69.60
5647;DHT22;2845;48.626;9.362;2023-10-13T16:19:46;22.90;69.10
5647;DHT22;2845;48.626;9.362;2023-10-13T16:22:24;25.00;70.10
5647;DHT22;2845;48.626;9.362;2023-10-13T16:24:58;22.50;68.60
5647;DHT22;2845;48.626;9.362;2023-10-13T16:27:50;22.40;68.40
5647;DHT22;2845;48.626;9.362;2023-10-13T16:30:24;22.30;68.00
5647;DHT22;2845;48.626;9.362;2023-10-13T16:33:01;22.00;68.10
5647;DHT22;2845;48.626;9.362;2023-10-13T16:35:41;21.80;68.40
5647;DHT22;2845;48.626;9.362;2023-10-13T16:38:19;21.60;68.10
5647;DHT22;2845;48.626;9.362;2023-10-13T16:40:57;21.40;68.20
5647;DHT22;2845;48.626;9.362;2023-10-13T16:43:31;21.20;67.70
5647;DHT22;2845;48.626;9.362;2023-10-13T16:46:10;21.20;67.80
5647;DHT22;2845;48.626;9.362;2023-10-13T16:48:45;21.10;67.60
5647;DHT22;2845;48.626;9.362;2023-10-13T16:51:23;21.00;67.70
5647;DHT22;2845;48.626;9.362;2023-10-13T16:53:58;20.80;67.60
5647;DHT22;2845;48.626;9.362;2023-10-13T16:56:32;20.70;68.20
5647;DHT22;2845;48.626;9.362;2023-10-13T16:59:10;20.70;68.40
5647;DHT22;2845;48.626;9.362;2023-10-13T17:01:51;21.50;69.20
5647;DHT22;2845;48.626;9.362;2023-10-13T17:04:26;20.30;68.90
5647;DHT22;2845;48.626;9.362;2023-10-13T17:07:05;20.30;69.40
5647;DHT22;2845;48.626;9.362;2023-10-13T17:09:40;20.10;70.00
5647;DHT22;2845;48.626;9.362;2023-10-13T17:12:18;19.90;70.00
5647;DHT22;2845;48.626;9.362;2023-10-13T17:14:53;20.00;70.30
5647;DHT22;2845;48.626;9.362;2023-10-13T17:17:30;19.70;70.90
5647;DHT22;2845;48.626;9.362;2023-10-13T17:20:06;19.60;71.20
5647;DHT22;2845;48.626;9.362;2023-10-13T17:22:43;19.50;71.30
5647;DHT22;2845;48.626;9.362;2023-10-13T17:25:19;21.10;72.40
5647;DHT22;2845;48.626;9.362;2023-10-13T17:27:54;19.30;72.20
5647;DHT22;2845;48.626;9.362;2023-10-13T17:30:28;19.20;72.50
5647;DHT22;2845;48.626;9.362;2023-10-13T17:33:03;19.10;72.90
5647;DHT22;2845;48.626;9.362;2023-10-13T17:35:44;19.00;73.40
5647;DHT22;2845;48.626;9.362;2023-10-13T17:38:21;18.80;73.80
5647;DHT22;2845;48.626;9.362;2023-10-13T17:40:57;18.80;74.20
5647;DHT22;2845;48.626;9.362;2023-10-13T17:43:32;18.70;74.70